ADDS METAR Data INFO
IDs: Format: Raw Decoded Include TAF

Data at: 0038 UTC 23 Oct 2017

KPRO 230015Z AUTO 19006KT 10SM CLR 10/01 A3003 RMK AO2 T01000005
KPRO 222355Z AUTO 19006KT 10SM CLR 11/00 A3003 RMK AO2 T01100003 10201 20110
KPRO 222335Z AUTO 19005KT 4SM HZ CLR 12/M01 A3003 RMK AO2 T01241008
KPRO 222315Z AUTO 20005KT 10SM CLR 15/M03 A3003 RMK AO2 T01521026
KPRO 222255Z AUTO 21003KT 10SM CLR 18/M03 A3003 RMK AO2 T01761035
KPRO 222235Z AUTO 25004KT 10SM CLR 19/M04 A3003 RMK AO2 T01851045
KPRO 222215Z AUTO 24006KT 10SM CLR 19/M05 A3003 RMK AO2 T01911047
KPRO 222155Z AUTO 00000KT 10SM CLR 19/M05 A3003 RMK AO2 T01911046
KPRO 222135Z AUTO 29004KT 10SM CLR 20/M05 A3004 RMK AO2 T01951048
KPRO 222115Z AUTO 00000KT 10SM CLR 20/M05 A3004 RMK AO2 T01971046
KPRO 222055Z AUTO 00000KT 10SM CLR 20/M04 A3004 RMK AO2 T01961039
KPRO 222035Z AUTO 31005KT 10SM CLR 20/M03 A3004 RMK AO2 T02001035
KPRO 222015Z AUTO 32005KT 10SM CLR 20/M04 A3004 RMK AO2 T01961038
KPRO 221955Z AUTO 33006KT 10SM CLR 20/M03 A3004 RMK AO2 T01971035
KPRO 221935Z AUTO 28007KT 10SM CLR 20/M03 A3005 RMK AO2 T01981034
KPRO 221915Z AUTO 29006KT 10SM CLR 20/M03 A3005 RMK AO2 T01961032
KPRO 221855Z AUTO 30008KT 10SM CLR 19/M02 A3006 RMK AO2 T01921018
KPRO 221835Z AUTO 31006KT 10SM CLR 19/M01 A3006 RMK AO2 T01901008
KPRO 221815Z AUTO 28008G14KT 10SM CLR 18/M01 A3006 RMK AO2 T01831007
KPRO 221755Z AUTO 29008G15KT 10SM CLR 18/00 A3007 RMK AO2 T01771002 10178 20085
KPRO 221735Z AUTO 28007KT 10SM CLR 17/02 A3008 RMK AO2 T01720020
KPRO 221715Z AUTO 29006G14KT 10SM CLR 17/02 A3009 RMK AO2 T01680017
KPRO 221655Z AUTO 30007KT 10SM CLR 17/01 A3009 RMK AO2 T01660011
KPRO 221635Z AUTO 30010G17KT 260V320 10SM CLR 17/02 A3008 RMK AO2 T01650017
KPRO 221615Z AUTO 29008KT 10SM CLR 16/04 A3008 RMK AO2 T01580037
KPRO 221555Z AUTO 29005KT 10SM CLR 15/06 A3008 RMK AO2 T01500055
KPRO 221535Z AUTO 30006KT 10SM CLR 14/06 A3008 RMK AO2 T01400059
KPRO 221515Z AUTO 29006KT 10SM CLR 13/06 A3008 RMK AO2 T01280064
KPRO 221455Z AUTO 30006KT 10SM CLR 13/07 A3008 RMK AO2 T01250065
KPRO 221435Z AUTO 31004KT 10SM CLR 11/07 A3008 RMK AO2 T01110066
KPRO 221415Z AUTO 29006KT 10SM CLR 10/07 A3008 RMK AO2 T00960065
KPRO 221355Z AUTO 29006KT 10SM CLR 09/06 A3007 RMK AO2 T00860062
KPRO 221335Z AUTO 28007KT 10SM CLR 09/07 A3006 RMK AO2 T00850065
KPRO 221315Z AUTO 29007KT 10SM CLR 09/07 A3005 RMK AO2 T00850065
KPRO 221255Z AUTO 29006KT 10SM CLR 09/07 A3003 RMK AO2 T00880066
KPRO 221235Z AUTO 29006KT 10SM CLR 09/07 A3003 RMK AO2 T00900068
KPRO 221215Z AUTO 29006KT 10SM CLR 09/07 A3003 RMK AO2 T00920070
KPRO 221155Z AUTO 29006KT 10SM CLR 09/07 A3004 RMK AO2 T00930072 10105 20092
KPRO 221135Z AUTO 30005KT 10SM CLR 09/08 A3002 RMK AO2 T00930075
KPRO 221115Z AUTO 30004KT 10SM CLR 09/08 A3002 RMK AO2 T00920076
KPRO 221055Z AUTO 28005KT 10SM CLR 09/08 A3002 RMK AO2 T00940078
KPRO 221035Z AUTO 00000KT 10SM CLR 10/08 A3000 RMK AO2 T00950079
KPRO 221015Z AUTO 30003KT 10SM CLR 10/08 A2999 RMK AO2 T00960079
KPRO 220955Z AUTO 00000KT 10SM CLR 10/08 A2999 RMK AO2 T01000075
KPRO 220935Z AUTO 30003KT 10SM CLR 10/08 A2999 RMK AO2 T00970080
KPRO 220915Z AUTO 00000KT 10SM CLR 10/08 A2997 RMK AO2 T00960081
KPRO 220855Z AUTO 30003KT 10SM CLR 10/09 A2998 RMK AO2 T00950085
KPRO 220835Z AUTO 00000KT 10SM CLR 10/08 A2997 RMK AO2 T00970082
KPRO 220815Z AUTO 00000KT 10SM SCT120 10/08 A2997 RMK AO2 T00970083
KPRO 220755Z AUTO 29003KT 10SM BKN120 10/09 A2998 RMK AO2 T00970085
KPRO 220735Z AUTO 00000KT 10SM OVC120 10/08 A2996 RMK AO2 T00980082
KPRO 220715Z AUTO 30003KT 10SM OVC120 10/08 A2996 RMK AO2 T01000080
KPRO 220655Z AUTO 30004KT 10SM SCT120 10/08 A2996 RMK AO2 T01010080
KPRO 220635Z AUTO 30003KT 10SM CLR 10/08 A2996 RMK AO2 T01020080
KPRO 220615Z AUTO 30005KT 10SM CLR 11/08 A2996 RMK AO2 T01050076
KPRO 220555Z AUTO 30005KT 10SM CLR 11/08 A2995 RMK AO2 T01050078 10133 20105
KPRO 220535Z AUTO 31004KT 10SM SCT120 11/08 A2994 RMK AO2 T01060077
KPRO 220515Z AUTO 32004KT 10SM BKN120 11/08 A2994 RMK AO2 T01080078
KPRO 220455Z AUTO 31004KT 10SM BKN110 11/08 A2996 RMK AO2 T01100078
KPRO 220435Z AUTO 31006KT 10SM OVC110 11/08 A2996 RMK AO2 T01110081
KPRO 220415Z AUTO 31005KT 10SM OVC110 11/09 A2996 RMK AO2 T01130085
KPRO 220355Z AUTO 30008KT 10SM OVC120 11/09 A2996 RMK AO2 T01130088 402390113
KPRO 220335Z AUTO 30007KT 10SM SCT075 BKN120 12/09 A2994 RMK AO2 T01150091
KPRO 220315Z AUTO 30006KT 10SM SCT100 12/09 A2992 RMK AO2 T01160091
KPRO 220255Z AUTO 31007KT 10SM SCT075 BKN100 12/10 A2991 RMK AO2 T01170095
KPRO 220235Z AUTO 31007KT 10SM -RA SCT055 BKN075 BKN090 12/11 A2989 RMK AO2 T01210105
KPRO 220215Z AUTO 30006KT 10SM -RA OVC055 12/11 A2988 RMK AO2 T01240108
KPRO 220155Z AUTO 31005KT 10SM -RA BKN047 OVC065 13/11 A2986 RMK AO2 P0001 T01250110
KPRO 220135Z AUTO 30005KT 10SM -RA SCT047 OVC060 13/11 A2986 RMK AO2 P0001 T01280114
KPRO 220115Z AUTO 31005KT 10SM -RA SCT060 BKN100 13/12 A2984 RMK AO2 T01300120
KPRO 220055Z AUTO 30009G15KT 10SM SCT044 SCT050 BKN110 13/12 A2981 RMK AO2 P0002 T01300122
KPRO 220035Z AUTO 30007KT 10SM RA SCT040 BKN085 OVC110 13/12 A2981 RMK AO2 P0002 T01290121
KPRO 220015Z AUTO 30008G15KT 10SM -RA BKN035 BKN043 BKN070 13/12 A2982 RMK AO2 P0001 T01310123
KPRO 212355Z AUTO 28007G14KT 10SM -RA SCT030 OVC035 13/13 A2983 RMK AO2 P0031 60031 T01320125 10239 20132
KPRO 212335Z AUTO 31010KT 10SM -RA SCT009 BKN025 OVC031 14/14 A2980 RMK AO2 P0029 T01390135
KPRO 212315Z AUTO 30012G18KT 1 1/2SM +RA SCT009 BKN014 OVC029 16/15 A2978 RMK AO2 P0027 T01580151
KPRO 212255Z AUTO 18012G19KT 10SM -RA OVC029 22/18 A2975 RMK AO2 T02210178
KPRO 212235Z AUTO 17012KT 10SM BKN029 OVC036 22/18 A2974 RMK AO2 T02230177
KPRO 212215Z AUTO 17010G16KT 10SM OVC031 23/18 A2974 RMK AO2 T02250176
KPRO 212155Z AUTO 17013G17KT 10SM BKN031 OVC036 23/18 A2973 RMK AO2 T02250175
KPRO 212135Z AUTO 17015G21KT 10SM OVC029 23/18 A2972 RMK AO2 T02250175
KPRO 212115Z AUTO 17016G23KT 10SM SCT027 BKN032 BKN070 24/17 A2972 RMK AO2 T02380174
KPRO 212055Z AUTO 18016G27KT 10SM SCT027 BKN060 24/17 A2972 RMK AO2 T02360173
KPRO 212035Z AUTO 18016G28KT 10SM SCT025 OVC060 23/17 A2972 RMK AO2 T02280174
KPRO 212015Z AUTO 18016G22KT 10SM OVC025 22/17 A2974 RMK AO2 T02190173
KPRO 211955Z AUTO 19012G25KT 10SM OVC025 22/17 A2975 RMK AO2 T02150170
KPRO 211935Z AUTO 19018G26KT 10SM OVC025 22/17 A2974 RMK AO2 T02180170
KPRO 211915Z AUTO 18020G25KT 10SM BKN025 OVC055 23/17 A2974 RMK AO2 T02320169
KPRO 211855Z AUTO 18019G26KT 10SM BKN025 BKN029 OVC049 23/17 A2974 RMK AO2 T02260169
KPRO 211835Z AUTO 18016G29KT 10SM BKN025 OVC036 22/17 A2973 RMK AO2 T02180167
KPRO 211815Z AUTO 18015G28KT 10SM BKN025 OVC034 21/17 A2974 RMK AO2 T02120165
KPRO 211755Z AUTO 18017G26KT 10SM BKN025 OVC031 21/17 A2974 RMK AO2 T02100165 10210 20175
KPRO 211735Z AUTO 17017G27KT 10SM BKN027 OVC035 21/17 A2974 RMK AO2 T02100165
KPRO 211715Z AUTO 18018G24KT 10SM BKN027 OVC035 21/17 A2974 RMK AO2 T02100165
KPRO 211655Z AUTO 18018G24KT 10SM OVC025 21/16 A2975 RMK AO2 T02050164
KPRO 211635Z AUTO 18014G21KT 10SM OVC023 20/17 A2975 RMK AO2 T02000165
KPRO 211615Z AUTO 17015G21KT 10SM OVC023 20/16 A2975 RMK AO2 T02000163
KPRO 211555Z AUTO 17015G22KT 10SM OVC023 20/16 A2975 RMK AO2 T01950161
KPRO 211535Z AUTO 18012G16KT 10SM OVC023 19/16 A2975 RMK AO2 T01920160
KPRO 211515Z AUTO 17013G22KT 10SM OVC023 19/16 A2974 RMK AO2 T01910159
KPRO 211455Z AUTO 17015G23KT 10SM OVC023 19/16 A2973 RMK AO2 T01880157
KPRO 211435Z AUTO 16015G22KT 10SM BKN020 OVC028 19/16 A2973 RMK AO2 T01850157
KPRO 211415Z AUTO 16013G19KT 10SM SCT020 OVC028 18/16 A2974 RMK AO2 T01830157
KPRO 211355Z AUTO 16015G20KT 10SM BKN020 OVC028 18/16 A2973 RMK AO2 T01800157
KPRO 211335Z AUTO 16014G22KT 10SM OVC020 18/16 A2974 RMK AO2 T01780157
KPRO 211315Z AUTO 17014G22KT 10SM OVC020 18/16 A2973 RMK AO2 T01780156
KPRO 211255Z AUTO 17016G25KT 10SM OVC020 18/16 A2973 RMK AO2 T01780157